sensor_id;sensor_type;location;lat;lon;timestamp;temperature;humidity
21734;DHT22;11029;47.820;10.534;2023-11-21T00:01:51;6.50;71.40
21734;DHT22;11029;47.820;10.534;2023-11-21T00:04:37;6.50;71.80
21734;DHT22;11029;47.820;10.534;2023-11-21T00:07:23;6.40;71.90
21734;DHT22;11029;47.820;10.534;2023-11-21T00:10:09;6.40;72.10
21734;DHT22;11029;47.820;10.534;2023-11-21T00:12:56;6.30;72.20
21734;DHT22;11029;47.820;10.534;2023-11-21T00:15:41;6.30;71.70
21734;DHT22;11029;47.820;10.534;2023-11-21T00:18:26;6.40;71.20
21734;DHT22;11029;47.820;10.534;2023-11-21T00:21:12;6.30;71.30
21734;DHT22;11029;47.820;10.534;2023-11-21T00:23:58;6.40;71.30
21734;DHT22;11029;47.820;10.534;2023-11-21T00:26:43;6.30;71.50
21734;DHT22;11029;47.820;10.534;2023-11-21T00:29:29;6.30;71.50
21734;DHT22;11029;47.820;10.534;2023-11-21T00:32:15;6.30;71.20
21734;DHT22;11029;47.820;10.534;2023-11-21T00:35:01;6.40;70.80
21734;DHT22;11029;47.820;10.534;2023-11-21T00:37:47;6.30;70.60
21734;DHT22;11029;47.820;10.534;2023-11-21T00:40:35;6.30;70.50
21734;DHT22;11029;47.820;10.534;2023-11-21T00:43:20;6.30;70.70
21734;DHT22;11029;47.820;10.534;2023-11-21T00:46:06;6.30;70.90
21734;DHT22;11029;47.820;10.534;2023-11-21T00:48:55;6.20;71.30
21734;DHT22;11029;47.820;10.534;2023-11-21T00:51:41;6.20;71.10
21734;DHT22;11029;47.820;10.534;2023-11-21T00:54:27;6.20;70.80
21734;DHT22;11029;47.820;10.534;2023-11-21T00:57:13;6.30;71.00
21734;DHT22;11029;47.820;10.534;2023-11-21T01:00:00;6.30;71.00
21734;DHT22;11029;47.820;10.534;2023-11-21T01:02:47;6.20;71.00
21734;DHT22;11029;47.820;10.534;2023-11-21T01:05:34;6.20;71.20
21734;DHT22;11029;47.820;10.534;2023-11-21T01:08:19;6.20;71.10
21734;DHT22;11029;47.820;10.534;2023-11-21T01:11:05;6.20;71.10
21734;DHT22;11029;47.820;10.534;2023-11-21T01:13:53;6.30;71.40
21734;DHT22;11029;47.820;10.534;2023-11-21T01:16:39;6.30;71.70
21734;DHT22;11029;47.820;10.534;2023-11-21T01:19:25;6.30;71.50
21734;DHT22;11029;47.820;10.534;2023-11-21T01:22:11;6.30;71.80
21734;DHT22;11029;47.820;10.534;2023-11-21T01:24:57;6.30;71.70
21734;DHT22;11029;47.820;10.534;2023-11-21T01:27:43;6.30;72.00
21734;DHT22;11029;47.820;10.534;2023-11-21T01:30:28;6.30;72.30
21734;DHT22;11029;47.820;10.534;2023-11-21T01:33:15;6.30;72.50
21734;DHT22;11029;47.820;10.534;2023-11-21T01:36:01;6.30;72.20
21734;DHT22;11029;47.820;10.534;2023-11-21T01:38:47;6.30;72.80
21734;DHT22;11029;47.820;10.534;2023-11-21T01:41:34;6.30;73.10
21734;DHT22;11029;47.820;10.534;2023-11-21T01:44:20;6.20;73.90
21734;DHT22;11029;47.820;10.534;2023-11-21T01:47:06;6.10;74.90
21734;DHT22;11029;47.820;10.534;2023-11-21T01:49:51;6.00;75.50
21734;DHT22;11029;47.820;10.534;2023-11-21T01:52:38;6.00;75.90
21734;DHT22;11029;47.820;10.534;2023-11-21T01:55:26;6.00;76.30
21734;DHT22;11029;47.820;10.534;2023-11-21T01:58:14;5.90;76.90
21734;DHT22;11029;47.820;10.534;2023-11-21T02:00:59;5.80;77.40
21734;DHT22;11029;47.820;10.534;2023-11-21T02:03:46;5.80;77.90
21734;DHT22;11029;47.820;10.534;2023-11-21T02:06:32;5.70;78.10
21734;DHT22;11029;47.820;10.534;2023-11-21T02:09:26;5.70;78.10
21734;DHT22;11029;47.820;10.534;2023-11-21T02:12:12;5.70;78.80
21734;DHT22;11029;47.820;10.534;2023-11-21T02:14:57;5.70;78.90
21734;DHT22;11029;47.820;10.534;2023-11-21T02:17:43;5.70;78.80
21734;DHT22;11029;47.820;10.534;2023-11-21T02:20:30;5.70;78.90
21734;DHT22;11029;47.820;10.534;2023-11-21T02:23:15;5.60;79.00
21734;DHT22;11029;47.820;10.534;2023-11-21T02:26:01;5.70;79.20
21734;DHT22;11029;47.820;10.534;2023-11-21T02:28:49;5.60;79.40
21734;DHT22;11029;47.820;10.534;2023-11-21T02:31:36;5.60;79.70
21734;DHT22;11029;47.820;10.534;2023-11-21T02:34:24;5.60;79.90
21734;DHT22;11029;47.820;10.534;2023-11-21T02:37:13;5.50;80.00
21734;DHT22;11029;47.820;10.534;2023-11-21T02:39:58;5.60;79.80
21734;DHT22;11029;47.820;10.534;2023-11-21T02:42:44;5.60;79.60
21734;DHT22;11029;47.820;10.534;2023-11-21T02:45:32;5.60;79.10
21734;DHT22;11029;47.820;10.534;2023-11-21T02:48:17;5.60;79.10
21734;DHT22;11029;47.820;10.534;2023-11-21T02:51:04;5.60;79.30
21734;DHT22;11029;47.820;10.534;2023-11-21T02:53:50;5.60;79.10
21734;DHT22;11029;47.820;10.534;2023-11-21T02:56:36;5.70;78.60
21734;DHT22;11029;47.820;10.534;2023-11-21T02:59:22;5.70;77.80
21734;DHT22;11029;47.820;10.534;2023-11-21T03:02:07;5.70;78.10
21734;DHT22;11029;47.820;10.534;2023-11-21T03:04:54;5.80;77.40
21734;DHT22;11029;47.820;10.534;2023-11-21T03:07:39;5.80;77.40
21734;DHT22;11029;47.820;10.534;2023-11-21T03:10:26;5.80;78.10
21734;DHT22;11029;47.820;10.534;2023-11-21T03:13:13;5.70;78.90
21734;DHT22;11029;47.820;10.534;2023-11-21T03:15:59;5.60;79.80
21734;DHT22;11029;47.820;10.534;2023-11-21T03:18:45;5.60;80.30
21734;DHT22;11029;47.820;10.534;2023-11-21T03:21:30;5.50;81.10
21734;DHT22;11029;47.820;10.534;2023-11-21T03:24:16;5.50;81.30
21734;DHT22;11029;47.820;10.534;2023-11-21T03:27:03;5.30;82.20
21734;DHT22;11029;47.820;10.534;2023-11-21T03:29:49;5.30;82.60
21734;DHT22;11029;47.820;10.534;2023-11-21T03:32:35;5.30;82.20
21734;DHT22;11029;47.820;10.534;2023-11-21T03:35:21;5.20;82.50
21734;DHT22;11029;47.820;10.534;2023-11-21T03:38:06;5.20;83.00
21734;DHT22;11029;47.820;10.534;2023-11-21T03:40:52;5.20;83.40
21734;DHT22;11029;47.820;10.534;2023-11-21T03:43:38;5.10;83.20
21734;DHT22;11029;47.820;10.534;2023-11-21T03:46:24;5.10;83.20
21734;DHT22;11029;47.820;10.534;2023-11-21T03:49:10;5.10;83.40
21734;DHT22;11029;47.820;10.534;2023-11-21T03:51:56;5.10;83.60
21734;DHT22;11029;47.820;10.534;2023-11-21T03:54:42;5.10;83.70
21734;DHT22;11029;47.820;10.534;2023-11-21T03:57:28;5.00;83.90
21734;DHT22;11029;47.820;10.534;2023-11-21T04:00:16;5.00;84.40
21734;DHT22;11029;47.820;10.534;2023-11-21T04:03:02;5.00;84.90
21734;DHT22;11029;47.820;10.534;2023-11-21T04:05:48;5.00;84.90
21734;DHT22;11029;47.820;10.534;2023-11-21T04:08:34;5.00;85.40
21734;DHT22;11029;47.820;10.534;2023-11-21T04:11:20;5.00;85.40
21734;DHT22;11029;47.820;10.534;2023-11-21T04:14:05;5.00;85.60
21734;DHT22;11029;47.820;10.534;2023-11-21T04:16:51;5.00;85.20
21734;DHT22;11029;47.820;10.534;2023-11-21T04:19:38;4.90;85.20
21734;DHT22;11029;47.820;10.534;2023-11-21T04:22:24;5.00;85.50
21734;DHT22;11029;47.820;10.534;2023-11-21T04:25:10;5.10;85.00
21734;DHT22;11029;47.820;10.534;2023-11-21T04:27:56;5.10;84.90
21734;DHT22;11029;47.820;10.534;2023-11-21T04:30:42;5.10;84.20
21734;DHT22;11029;47.820;10.534;2023-11-21T04:33:27;5.20;84.10
21734;DHT22;11029;47.820;10.534;2023-11-21T04:36:14;5.20;83.60
21734;DHT22;11029;47.820;10.534;2023-11-21T04:38:59;5.10;84.50
21734;DHT22;11029;47.820;10.534;2023-11-21T04:41:45;5.10;84.40
21734;DHT22;11029;47.820;10.534;2023-11-21T04:44:30;5.00;84.90
21734;DHT22;11029;47.820;10.534;2023-11-21T04:47:16;4.90;85.30
21734;DHT22;11029;47.820;10.534;2023-11-21T04:50:03;4.90;84.70
21734;DHT22;11029;47.820;10.534;2023-11-21T04:52:49;4.70;84.60
21734;DHT22;11029;47.820;10.534;2023-11-21T04:55:34;4.60;85.20
21734;DHT22;11029;47.820;10.534;2023-11-21T04:58:20;4.60;85.70
21734;DHT22;11029;47.820;10.534;2023-11-21T05:01:07;4.60;86.20
21734;DHT22;11029;47.820;10.534;2023-11-21T05:03:53;4.50;86.20
21734;DHT22;11029;47.820;10.534;2023-11-21T05:06:39;4.50;86.10
21734;DHT22;11029;47.820;10.534;2023-11-21T05:09:25;4.50;86.10
21734;DHT22;11029;47.820;10.534;2023-11-21T05:12:11;4.40;86.30
21734;DHT22;11029;47.820;10.534;2023-11-21T05:14:57;4.30;86.40
21734;DHT22;11029;47.820;10.534;2023-11-21T05:17:44;4.30;86.20
21734;DHT22;11029;47.820;10.534;2023-11-21T05:20:32;4.30;86.50
21734;DHT22;11029;47.820;10.534;2023-11-21T05:23:18;4.30;85.80
21734;DHT22;11029;47.820;10.534;2023-11-21T05:26:04;4.20;86.30
21734;DHT22;11029;47.820;10.534;2023-11-21T05:28:49;4.20;86.30
21734;DHT22;11029;47.820;10.534;2023-11-21T05:31:35;4.20;86.60
21734;DHT22;11029;47.820;10.534;2023-11-21T05:34:21;4.10;86.90
21734;DHT22;11029;47.820;10.534;2023-11-21T05:37:09;4.20;87.10
21734;DHT22;11029;47.820;10.534;2023-11-21T05:39:54;4.20;87.20
21734;DHT22;11029;47.820;10.534;2023-11-21T05:42:42;4.30;86.70
21734;DHT22;11029;47.820;10.534;2023-11-21T05:45:29;4.30;86.80
21734;DHT22;11029;47.820;10.534;2023-11-21T05:48:15;4.30;87.10
21734;DHT22;11029;47.820;10.534;2023-11-21T05:51:01;4.40;87.30
21734;DHT22;11029;47.820;10.534;2023-11-21T05:53:46;4.50;86.60
21734;DHT22;11029;47.820;10.534;2023-11-21T05:56:32;4.50;86.40
21734;DHT22;11029;47.820;10.534;2023-11-21T05:59:18;4.60;86.20
21734;DHT22;11029;47.820;10.534;2023-11-21T06:02:07;4.70;85.60
21734;DHT22;11029;47.820;10.534;2023-11-21T06:04:53;4.70;85.30
21734;DHT22;11029;47.820;10.534;2023-11-21T06:07:39;4.70;84.90
21734;DHT22;11029;47.820;10.534;2023-11-21T06:10:25;4.70;85.00
21734;DHT22;11029;47.820;10.534;2023-11-21T06:13:11;4.60;85.00
21734;DHT22;11029;47.820;10.534;2023-11-21T06:15:56;4.70;85.30
21734;DHT22;11029;47.820;10.534;2023-11-21T06:18:42;4.70;84.70
21734;DHT22;11029;47.820;10.534;2023-11-21T06:21:28;4.60;85.40
21734;DHT22;11029;47.820;10.534;2023-11-21T06:24:14;4.70;85.40
21734;DHT22;11029;47.820;10.534;2023-11-21T06:27:03;4.70;85.50
21734;DHT22;11029;47.820;10.534;2023-11-21T06:29:50;4.60;85.00
21734;DHT22;11029;47.820;10.534;2023-11-21T06:32:36;4.60;85.30
21734;DHT22;11029;47.820;10.534;2023-11-21T06:35:22;4.50;86.00
21734;DHT22;11029;47.820;10.534;2023-11-21T06:38:08;4.60;85.80
21734;DHT22;11029;47.820;10.534;2023-11-21T06:40:55;4.60;86.40
21734;DHT22;11029;47.820;10.534;2023-11-21T06:43:41;4.50;85.90
21734;DHT22;11029;47.820;10.534;2023-11-21T06:46:31;4.50;86.10
21734;DHT22;11029;47.820;10.534;2023-11-21T06:49:17;4.60;86.20
21734;DHT22;11029;47.820;10.534;2023-11-21T06:52:03;4.60;85.80
21734;DHT22;11029;47.820;10.534;2023-11-21T06:54:49;4.60;86.50
21734;DHT22;11029;47.820;10.534;2023-11-21T06:57:37;4.70;86.50
21734;DHT22;11029;47.820;10.534;2023-11-21T07:00:23;4.80;85.60
21734;DHT22;11029;47.820;10.534;2023-11-21T07:03:09;4.80;85.00
21734;DHT22;11029;47.820;10.534;2023-11-21T07:05:54;4.80;84.90
21734;DHT22;11029;47.820;10.534;2023-11-21T07:08:40;4.80;84.70
21734;DHT22;11029;47.820;10.534;2023-11-21T07:11:26;4.70;84.70
21734;DHT22;11029;47.820;10.534;2023-11-21T07:14:12;4.70;85.60
21734;DHT22;11029;47.820;10.534;2023-11-21T07:16:57;4.70;85.60
21734;DHT22;11029;47.820;10.534;2023-11-21T07:19:43;4.80;85.90
21734;DHT22;11029;47.820;10.534;2023-11-21T07:22:29;4.90;85.00
21734;DHT22;11029;47.820;10.534;2023-11-21T07:25:15;4.90;84.80
21734;DHT22;11029;47.820;10.534;2023-11-21T07:28:01;5.00;84.70
21734;DHT22;11029;47.820;10.534;2023-11-21T07:30:46;5.00;84.10
21734;DHT22;11029;47.820;10.534;2023-11-21T07:33:32;5.00;84.30
21734;DHT22;11029;47.820;10.534;2023-11-21T07:36:17;5.00;83.40
21734;DHT22;11029;47.820;10.534;2023-11-21T07:39:06;5.00;84.60
21734;DHT22;11029;47.820;10.534;2023-11-21T07:41:52;5.00;84.50
21734;DHT22;11029;47.820;10.534;2023-11-21T07:44:37;5.00;84.80
21734;DHT22;11029;47.820;10.534;2023-11-21T07:47:23;5.00;84.10
21734;DHT22;11029;47.820;10.534;2023-11-21T07:50:12;5.00;84.90
21734;DHT22;11029;47.820;10.534;2023-11-21T07:52:59;5.00;84.60
21734;DHT22;11029;47.820;10.534;2023-11-21T07:55:45;5.00;84.60
21734;DHT22;11029;47.820;10.534;2023-11-21T07:58:32;5.00;85.10
21734;DHT22;11029;47.820;10.534;2023-11-21T08:01:18;5.10;84.60
21734;DHT22;11029;47.820;10.534;2023-11-21T08:04:04;4.90;85.30
21734;DHT22;11029;47.820;10.534;2023-11-21T08:06:50;4.90;86.00
21734;DHT22;11029;47.820;10.534;2023-11-21T08:09:36;4.90;86.20
21734;DHT22;11029;47.820;10.534;2023-11-21T08:12:22;5.00;86.20
21734;DHT22;11029;47.820;10.534;2023-11-21T08:15:08;5.00;86.00
21734;DHT22;11029;47.820;10.534;2023-11-21T08:17:54;5.00;86.30
21734;DHT22;11029;47.820;10.534;2023-11-21T08:20:40;5.10;85.60
21734;DHT22;11029;47.820;10.534;2023-11-21T08:23:25;5.10;85.50
21734;DHT22;11029;47.820;10.534;2023-11-21T08:26:11;5.20;85.60
21734;DHT22;11029;47.820;10.534;2023-11-21T08:28:56;5.20;85.40
21734;DHT22;11029;47.820;10.534;2023-11-21T08:31:42;5.30;84.20
21734;DHT22;11029;47.820;10.534;2023-11-21T08:34:29;5.30;84.20
21734;DHT22;11029;47.820;10.534;2023-11-21T08:37:15;5.40;84.90
21734;DHT22;11029;47.820;10.534;2023-11-21T08:40:00;5.50;84.80
21734;DHT22;11029;47.820;10.534;2023-11-21T08:42:48;5.60;84.10
21734;DHT22;11029;47.820;10.534;2023-11-21T08:45:34;5.70;83.30
21734;DHT22;11029;47.820;10.534;2023-11-21T08:48:19;5.70;83.20
21734;DHT22;11029;47.820;10.534;2023-11-21T08:51:06;5.80;83.00
21734;DHT22;11029;47.820;10.534;2023-11-21T08:53:51;5.70;82.90
21734;DHT22;11029;47.820;10.534;2023-11-21T08:56:38;5.60;82.50
21734;DHT22;11029;47.820;10.534;2023-11-21T08:59:25;5.50;83.60
21734;DHT22;11029;47.820;10.534;2023-11-21T09:02:11;5.40;84.20
21734;DHT22;11029;47.820;10.534;2023-11-21T09:04:56;5.50;84.30
21734;DHT22;11029;47.820;10.534;2023-11-21T09:07:44;5.50;84.00
21734;DHT22;11029;47.820;10.534;2023-11-21T09:10:31;5.50;84.20
21734;DHT22;11029;47.820;10.534;2023-11-21T09:13:17;5.50;84.70
21734;DHT22;11029;47.820;10.534;2023-11-21T09:16:03;5.50;84.60
21734;DHT22;11029;47.820;10.534;2023-11-21T09:18:48;5.60;84.10
21734;DHT22;11029;47.820;10.534;2023-11-21T09:21:34;5.60;83.90
21734;DHT22;11029;47.820;10.534;2023-11-21T09:24:19;5.60;84.10
21734;DHT22;11029;47.820;10.534;2023-11-21T09:27:05;5.60;84.30
21734;DHT22;11029;47.820;10.534;2023-11-21T09:29:50;5.70;84.70
21734;DHT22;11029;47.820;10.534;2023-11-21T09:32:37;5.70;84.10
21734;DHT22;11029;47.820;10.534;2023-11-21T09:35:23;5.70;84.50
21734;DHT22;11029;47.820;10.534;2023-11-21T09:38:09;5.70;83.40
21734;DHT22;11029;47.820;10.534;2023-11-21T09:40:57;5.60;83.50
21734;DHT22;11029;47.820;10.534;2023-11-21T09:43:46;5.60;84.20
21734;DHT22;11029;47.820;10.534;2023-11-21T09:46:31;5.60;83.80
21734;DHT22;11029;47.820;10.534;2023-11-21T09:49:18;5.60;84.40
21734;DHT22;11029;47.820;10.534;2023-11-21T09:52:18;5.60;84.40
21734;DHT22;11029;47.820;10.534;2023-11-21T09:55:10;5.70;84.70
21734;DHT22;11029;47.820;10.534;2023-11-21T09:58:03;5.70;84.30
21734;DHT22;11029;47.820;10.534;2023-11-21T10:00:55;5.70;84.40
21734;DHT22;11029;47.820;10.534;2023-11-21T10:03:43;5.70;84.50
21734;DHT22;11029;47.820;10.534;2023-11-21T10:06:30;5.70;84.10
21734;DHT22;11029;47.820;10.534;2023-11-21T10:09:17;5.80;84.00
21734;DHT22;11029;47.820;10.534;2023-11-21T10:12:07;5.80;83.20
21734;DHT22;11029;47.820;10.534;2023-11-21T10:14:54;5.80;83.50
21734;DHT22;11029;47.820;10.534;2023-11-21T10:17:44;5.80;84.00
21734;DHT22;11029;47.820;10.534;2023-11-21T10:20:31;5.90;84.10
21734;DHT22;11029;47.820;10.534;2023-11-21T10:23:20;6.00;83.50
21734;DHT22;11029;47.820;10.534;2023-11-21T10:26:11;6.00;83.40
21734;DHT22;11029;47.820;10.534;2023-11-21T10:29:03;6.10;83.70
21734;DHT22;11029;47.820;10.534;2023-11-21T10:31:49;6.10;82.40
21734;DHT22;11029;47.820;10.534;2023-11-21T10:34:36;6.10;82.30
21734;DHT22;11029;47.820;10.534;2023-11-21T10:37:22;6.00;82.70
21734;DHT22;11029;47.820;10.534;2023-11-21T10:40:12;6.00;83.60
21734;DHT22;11029;47.820;10.534;2023-11-21T10:43:06;6.10;83.00
21734;DHT22;11029;47.820;10.534;2023-11-21T10:45:57;6.20;82.60
21734;DHT22;11029;47.820;10.534;2023-11-21T10:48:45;6.50;83.40
21734;DHT22;11029;47.820;10.534;2023-11-21T10:51:31;6.70;80.50
21734;DHT22;11029;47.820;10.534;2023-11-21T10:54:20;6.80;79.80
21734;DHT22;11029;47.820;10.534;2023-11-21T10:57:06;6.90;78.80
21734;DHT22;11029;47.820;10.534;2023-11-21T10:59:54;6.80;79.70
21734;DHT22;11029;47.820;10.534;2023-11-21T11:02:41;6.80;79.90
21734;DHT22;11029;47.820;10.534;2023-11-21T11:05:29;6.80;79.60
21734;DHT22;11029;47.820;10.534;2023-11-21T11:08:18;6.60;79.50
21734;DHT22;11029;47.820;10.534;2023-11-21T11:11:07;6.60;79.60
21734;DHT22;11029;47.820;10.534;2023-11-21T11:13:55;6.60;80.20
21734;DHT22;11029;47.820;10.534;2023-11-21T11:16:42;6.50;81.90
21734;DHT22;11029;47.820;10.534;2023-11-21T11:19:30;6.50;80.90
21734;DHT22;11029;47.820;10.534;2023-11-21T11:22:42;6.50;81.60
21734;DHT22;11029;47.820;10.534;2023-11-21T11:25:51;6.50;81.10
21734;DHT22;11029;47.820;10.534;2023-11-21T11:28:51;6.50;80.80
21734;DHT22;11029;47.820;10.534;2023-11-21T11:31:40;6.40;82.20
21734;DHT22;11029;47.820;10.534;2023-11-21T11:34:34;6.50;82.50
21734;DHT22;11029;47.820;10.534;2023-11-21T11:37:23;6.50;80.80
21734;DHT22;11029;47.820;10.534;2023-11-21T11:40:11;6.50;81.00
21734;DHT22;11029;47.820;10.534;2023-11-21T11:42:58;6.40;81.50
21734;DHT22;11029;47.820;10.534;2023-11-21T11:45:44;6.40;81.30
21734;DHT22;11029;47.820;10.534;2023-11-21T11:48:37;6.30;81.80
21734;DHT22;11029;47.820;10.534;2023-11-21T11:51:25;6.30;81.10
21734;DHT22;11029;47.820;10.534;2023-11-21T11:54:10;6.20;81.90
21734;DHT22;11029;47.820;10.534;2023-11-21T11:56:56;6.30;82.00
21734;DHT22;11029;47.820;10.534;2023-11-21T12:00:07;6.30;80.90
21734;DHT22;11029;47.820;10.534;2023-11-21T12:03:02;6.30;81.00
21734;DHT22;11029;47.820;10.534;2023-11-21T12:05:49;6.30;81.00
21734;DHT22;11029;47.820;10.534;2023-11-21T12:08:38;6.30;82.20
21734;DHT22;11029;47.820;10.534;2023-11-21T12:11:31;6.30;82.60
21734;DHT22;11029;47.820;10.534;2023-11-21T12:14:17;6.40;81.80
21734;DHT22;11029;47.820;10.534;2023-11-21T12:17:03;6.30;81.50
21734;DHT22;11029;47.820;10.534;2023-11-21T12:19:50;6.40;80.90
21734;DHT22;11029;47.820;10.534;2023-11-21T12:22:38;6.40;80.90
21734;DHT22;11029;47.820;10.534;2023-11-21T12:25:26;6.40;79.80
21734;DHT22;11029;47.820;10.534;2023-11-21T12:28:17;6.40;80.30
21734;DHT22;11029;47.820;10.534;2023-11-21T12:31:03;6.40;80.60
21734;DHT22;11029;47.820;10.534;2023-11-21T12:34:04;6.50;80.30
21734;DHT22;11029;47.820;10.534;2023-11-21T12:36:52;6.60;79.50
21734;DHT22;11029;47.820;10.534;2023-11-21T12:39:39;6.60;80.10
21734;DHT22;11029;47.820;10.534;2023-11-21T12:42:25;6.50;79.80
21734;DHT22;11029;47.820;10.534;2023-11-21T12:45:20;6.30;75.90
21734;DHT22;11029;47.820;10.534;2023-11-21T12:48:11;6.00;78.10
21734;DHT22;11029;47.820;10.534;2023-11-21T12:50:57;5.80;78.60
21734;DHT22;11029;47.820;10.534;2023-11-21T12:53:45;5.60;77.30
21734;DHT22;11029;47.820;10.534;2023-11-21T12:56:32;5.50;77.70
21734;DHT22;11029;47.820;10.534;2023-11-21T12:59:18;5.50;77.70
21734;DHT22;11029;47.820;10.534;2023-11-21T13:02:05;5.60;79.10
21734;DHT22;11029;47.820;10.534;2023-11-21T13:04:52;5.70;80.00
21734;DHT22;11029;47.820;10.534;2023-11-21T13:07:42;5.90;81.30
21734;DHT22;11029;47.820;10.534;2023-11-21T13:10:32;6.10;79.50
21734;DHT22;11029;47.820;10.534;2023-11-21T13:13:22;6.20;78.70
21734;DHT22;11029;47.820;10.534;2023-11-21T13:16:10;6.30;78.40
21734;DHT22;11029;47.820;10.534;2023-11-21T13:18:56;6.30;78.70
21734;DHT22;11029;47.820;10.534;2023-11-21T13:21:41;6.20;79.30
21734;DHT22;11029;47.820;10.534;2023-11-21T13:24:27;6.20;80.70
21734;DHT22;11029;47.820;10.534;2023-11-21T13:27:12;5.90;78.30
21734;DHT22;11029;47.820;10.534;2023-11-21T13:30:00;5.60;79.60
21734;DHT22;11029;47.820;10.534;2023-11-21T13:32:45;5.50;80.30
21734;DHT22;11029;47.820;10.534;2023-11-21T13:35:36;5.40;81.00
21734;DHT22;11029;47.820;10.534;2023-11-21T13:38:28;5.20;82.60
21734;DHT22;11029;47.820;10.534;2023-11-21T13:41:18;5.30;83.70
21734;DHT22;11029;47.820;10.534;2023-11-21T13:44:05;5.40;81.40
21734;DHT22;11029;47.820;10.534;2023-11-21T13:47:03;5.40;82.00
21734;DHT22;11029;47.820;10.534;2023-11-21T13:49:51;5.40;81.20
21734;DHT22;11029;47.820;10.534;2023-11-21T13:52:36;5.40;81.30
21734;DHT22;11029;47.820;10.534;2023-11-21T13:55:22;5.40;80.60
21734;DHT22;11029;47.820;10.534;2023-11-21T13:58:10;5.40;80.30
21734;DHT22;11029;47.820;10.534;2023-11-21T14:01:02;5.30;81.00
21734;DHT22;11029;47.820;10.534;2023-11-21T14:03:51;5.40;81.80
21734;DHT22;11029;47.820;10.534;2023-11-21T14:06:47;5.50;81.40
21734;DHT22;11029;47.820;10.534;2023-11-21T14:09:35;5.70;80.80
21734;DHT22;11029;47.820;10.534;2023-11-21T14:12:29;6.00;79.90
21734;DHT22;11029;47.820;10.534;2023-11-21T14:15:22;6.30;78.00
21734;DHT22;11029;47.820;10.534;2023-11-21T14:18:08;6.80;77.80
21734;DHT22;11029;47.820;10.534;2023-11-21T14:20:56;7.40;77.30
21734;DHT22;11029;47.820;10.534;2023-11-21T14:23:42;8.00;75.40
21734;DHT22;11029;47.820;10.534;2023-11-21T14:26:29;8.60;72.40
21734;DHT22;11029;47.820;10.534;2023-11-21T14:29:18;9.00;71.70
21734;DHT22;11029;47.820;10.534;2023-11-21T14:32:09;9.40;68.40
21734;DHT22;11029;47.820;10.534;2023-11-21T14:34:55;9.10;66.40
21734;DHT22;11029;47.820;10.534;2023-11-21T14:37:41;8.60;67.90
21734;DHT22;11029;47.820;10.534;2023-11-21T14:40:27;8.10;69.30
21734;DHT22;11029;47.820;10.534;2023-11-21T14:43:18;7.80;70.60
21734;DHT22;11029;47.820;10.534;2023-11-21T14:46:05;7.50;72.20
21734;DHT22;11029;47.820;10.534;2023-11-21T14:48:55;7.40;72.80
21734;DHT22;11029;47.820;10.534;2023-11-21T14:51:56;7.20;73.60
21734;DHT22;11029;47.820;10.534;2023-11-21T14:54:45;7.10;74.00
21734;DHT22;11029;47.820;10.534;2023-11-21T14:57:32;7.20;74.40
21734;DHT22;11029;47.820;10.534;2023-11-21T15:00:19;7.20;74.70
21734;DHT22;11029;47.820;10.534;2023-11-21T15:03:21;7.20;75.80
21734;DHT22;11029;47.820;10.534;2023-11-21T15:06:26;7.10;76.80
21734;DHT22;11029;47.820;10.534;2023-11-21T15:09:14;6.90;77.30
21734;DHT22;11029;47.820;10.534;2023-11-21T15:12:00;6.80;77.30
21734;DHT22;11029;47.820;10.534;2023-11-21T15:15:02;6.60;77.80
21734;DHT22;11029;47.820;10.534;2023-11-21T15:17:49;6.50;78.10
21734;DHT22;11029;47.820;10.534;2023-11-21T15:20:35;6.20;78.80
21734;DHT22;11029;47.820;10.534;2023-11-21T15:23:20;6.10;79.20
21734;DHT22;11029;47.820;10.534;2023-11-21T15:26:06;6.00;79.20
21734;DHT22;11029;47.820;10.534;2023-11-21T15:28:54;5.80;80.50
21734;DHT22;11029;47.820;10.534;2023-11-21T15:31:40;5.80;82.00
21734;DHT22;11029;47.820;10.534;2023-11-21T15:34:31;5.80;82.20
21734;DHT22;11029;47.820;10.534;2023-11-21T15:37:16;5.80;82.80
21734;DHT22;11029;47.820;10.534;2023-11-21T15:40:02;5.90;83.00
21734;DHT22;11029;47.820;10.534;2023-11-21T15:42:51;5.80;83.20
21734;DHT22;11029;47.820;10.534;2023-11-21T15:45:38;5.80;83.30
21734;DHT22;11029;47.820;10.534;2023-11-21T15:48:24;5.80;83.40
21734;DHT22;11029;47.820;10.534;2023-11-21T15:51:11;5.70;83.60
21734;DHT22;11029;47.820;10.534;2023-11-21T15:53:58;5.70;83.20
21734;DHT22;11029;47.820;10.534;2023-11-21T15:56:43;5.60;83.40
21734;DHT22;11029;47.820;10.534;2023-11-21T15:59:30;5.40;83.90
21734;DHT22;11029;47.820;10.534;2023-11-21T16:02:19;5.30;84.70
21734;DHT22;11029;47.820;10.534;2023-11-21T16:05:06;5.20;84.50
21734;DHT22;11029;47.820;10.534;2023-11-21T16:07:52;5.10;85.90
21734;DHT22;11029;47.820;10.534;2023-11-21T16:10:40;5.10;85.80
21734;DHT22;11029;47.820;10.534;2023-11-21T16:13:25;5.10;86.60
21734;DHT22;11029;47.820;10.534;2023-11-21T16:16:11;5.20;86.60
21734;DHT22;11029;47.820;10.534;2023-11-21T16:18:57;5.20;86.60
21734;DHT22;11029;47.820;10.534;2023-11-21T16:21:45;5.30;86.40
21734;DHT22;11029;47.820;10.534;2023-11-21T16:24:31;5.40;86.40
21734;DHT22;11029;47.820;10.534;2023-11-21T16:27:19;5.40;85.90
21734;DHT22;11029;47.820;10.534;2023-11-21T16:30:05;5.40;85.90
21734;DHT22;11029;47.820;10.534;2023-11-21T16:32:55;5.40;84.80
21734;DHT22;11029;47.820;10.534;2023-11-21T16:35:41;5.30;84.90
21734;DHT22;11029;47.820;10.534;2023-11-21T16:38:27;5.30;85.50
21734;DHT22;11029;47.820;10.534;2023-11-21T16:41:12;5.30;85.80
21734;DHT22;11029;47.820;10.534;2023-11-21T16:43:58;5.40;85.60
21734;DHT22;11029;47.820;10.534;2023-11-21T16:46:51;5.40;85.60
21734;DHT22;11029;47.820;10.534;2023-11-21T16:49:43;5.40;85.40
21734;DHT22;11029;47.820;10.534;2023-11-21T16:52:30;5.40;85.80
21734;DHT22;11029;47.820;10.534;2023-11-21T16:55:16;5.40;85.60
21734;DHT22;11029;47.820;10.534;2023-11-21T16:58:01;5.40;85.90
21734;DHT22;11029;47.820;10.534;2023-11-21T17:00:46;5.40;86.00
21734;DHT22;11029;47.820;10.534;2023-11-21T17:03:34;5.30;85.90
21734;DHT22;11029;47.820;10.534;2023-11-21T17:06:21;5.30;85.60
21734;DHT22;11029;47.820;10.534;2023-11-21T17:09:08;5.30;85.60
21734;DHT22;11029;47.820;10.534;2023-11-21T17:11:55;5.20;85.50
21734;DHT22;11029;47.820;10.534;2023-11-21T17:14:42;5.20;86.30
21734;DHT22;11029;47.820;10.534;2023-11-21T17:17:28;5.20;86.30
21734;DHT22;11029;47.820;10.534;2023-11-21T17:20:14;5.30;86.40
21734;DHT22;11029;47.820;10.534;2023-11-21T17:23:02;5.30;86.30
21734;DHT22;11029;47.820;10.534;2023-11-21T17:25:49;5.30;85.90
21734;DHT22;11029;47.820;10.534;2023-11-21T17:28:35;5.30;86.10
21734;DHT22;11029;47.820;10.534;2023-11-21T17:31:21;5.30;86.10
21734;DHT22;11029;47.820;10.534;2023-11-21T17:34:07;5.30;85.90
21734;DHT22;11029;47.820;10.534;2023-11-21T17:36:53;5.30;86.00